createdAt,value
2019-02-24T00:00:24.880Z,52.30
2019-02-24T00:00:56.124Z,52.30
2019-02-24T00:01:27.299Z,52.30
2019-02-24T00:01:58.744Z,52.30
2019-02-24T00:02:29.915Z,52.30
2019-02-24T00:03:01.119Z,52.30
2019-02-24T00:03:32.675Z,52.30
2019-02-24T00:04:03.860Z,52.30
2019-02-24T00:04:35.311Z,52.30
2019-02-24T00:05:06.852Z,52.30
2019-02-24T00:05:38.393Z,52.30
2019-02-24T00:06:09.609Z,52.30
2019-02-24T00:06:40.840Z,52.30
2019-02-24T00:07:12.016Z,52.30
2019-02-24T00:07:43.192Z,52.40
2019-02-24T00:08:14.388Z,52.30
2019-02-24T00:08:45.575Z,52.30
2019-02-24T00:09:17.968Z,52.30
2019-02-24T00:09:49.203Z,52.40
2019-02-24T00:10:20.412Z,52.40
2019-02-24T00:10:51.656Z,52.30
2019-02-24T00:11:22.834Z,52.30
2019-02-24T00:11:54.312Z,52.30
2019-02-24T00:12:25.499Z,52.30
2019-02-24T00:12:56.672Z,52.30
2019-02-24T00:13:28.237Z,52.30
2019-02-24T00:13:59.753Z,52.30
2019-02-24T00:14:30.936Z,52.30
2019-02-24T00:15:02.131Z,52.30
2019-02-24T00:15:33.371Z,52.30
2019-02-24T00:16:04.884Z,52.40
2019-02-24T00:16:36.326Z,52.30
2019-02-24T00:17:07.545Z,52.30
2019-02-24T00:17:38.745Z,52.30
2019-02-24T00:18:10.291Z,53.00
2019-02-24T00:18:41.493Z,52.30
2019-02-24T00:19:12.658Z,52.30
2019-02-24T00:19:43.854Z,53.00
2019-02-24T00:20:15.038Z,52.40
2019-02-24T00:20:46.483Z,52.30
2019-02-24T00:21:17.703Z,52.40
2019-02-24T00:21:48.867Z,52.30
2019-02-24T00:22:20.383Z,52.40
2019-02-24T00:22:51.561Z,52.30
2019-02-24T00:23:22.734Z,52.30
2019-02-24T00:23:53.943Z,52.30
2019-02-24T00:24:25.146Z,52.40
2019-02-24T00:24:56.320Z,52.30
2019-02-24T00:25:27.779Z,52.30
2019-02-24T00:25:58.962Z,53.00
2019-02-24T00:26:30.139Z,52.30
2019-02-24T00:27:01.321Z,52.20
2019-02-24T00:27:32.513Z,52.20
2019-02-24T00:28:07.087Z,52.20
2019-02-24T00:28:36.659Z,52.20
2019-02-24T00:29:07.865Z,52.20
2019-02-24T00:29:39.040Z,52.20
2019-02-24T00:30:10.280Z,52.20
2019-02-24T00:30:41.467Z,53.00
2019-02-24T00:31:12.648Z,52.40
2019-02-24T00:31:43.820Z,52.20
2019-02-24T00:32:14.996Z,52.30
2019-02-24T00:32:46.212Z,52.20
2019-02-24T00:33:17.420Z,52.20
2019-02-24T00:33:48.648Z,52.30
2019-02-24T00:34:19.845Z,52.80
2019-02-24T00:34:51.025Z,52.20
2019-02-24T00:35:22.286Z,52.30
2019-02-24T00:35:53.465Z,52.20
2019-02-24T00:36:24.646Z,52.20
2019-02-24T00:36:56.122Z,52.20
2019-02-24T00:37:27.378Z,52.20
2019-02-24T00:37:58.650Z,52.20
2019-02-24T00:38:30.122Z,52.20
2019-02-24T00:39:01.306Z,52.20
2019-02-24T00:39:32.510Z,52.20
2019-02-24T00:40:03.763Z,52.20
2019-02-24T00:40:34.968Z,52.20
2019-02-24T00:41:06.151Z,52.10
2019-02-24T00:41:37.331Z,52.80
2019-02-24T00:42:08.503Z,52.20
2019-02-24T00:42:40.138Z,52.20
2019-02-24T00:43:11.629Z,52.20
2019-02-24T00:43:42.875Z,52.80
2019-02-24T00:44:14.403Z,52.20
2019-02-24T00:44:45.579Z,52.20
2019-02-24T00:45:17.064Z,52.20
2019-02-24T00:45:48.235Z,52.20
2019-02-24T00:46:19.415Z,52.10
2019-02-24T00:46:50.968Z,52.10
2019-02-24T00:47:22.147Z,52.20
2019-02-24T00:47:53.332Z,52.10
2019-02-24T00:48:24.896Z,52.00
2019-02-24T00:48:56.335Z,52.00
2019-02-24T00:49:27.848Z,52.00
2019-02-24T00:49:59.411Z,52.00
2019-02-24T00:50:30.928Z,52.00
2019-02-24T00:51:02.536Z,52.00
2019-02-24T00:51:34.038Z,52.00
2019-02-24T00:52:05.212Z,52.00
2019-02-24T00:52:36.391Z,52.00
2019-02-24T00:53:07.909Z,52.10
2019-02-24T00:53:39.088Z,52.00
2019-02-24T00:54:10.344Z,52.00
2019-02-24T00:54:41.529Z,52.00
2019-02-24T00:55:12.737Z,52.10
2019-02-24T00:55:43.930Z,52.00
2019-02-24T00:56:15.159Z,52.00
2019-02-24T00:56:46.638Z,52.00
2019-02-24T00:57:17.867Z,52.00
2019-02-24T00:57:49.037Z,52.00
2019-02-24T00:58:20.213Z,52.00
2019-02-24T00:58:51.410Z,52.10
2019-02-24T00:59:22.595Z,52.10
2019-02-24T00:59:53.846Z,52.00
2019-02-24T01:00:25.058Z,52.10
2019-02-24T01:00:56.302Z,52.00
2019-02-24T01:01:27.483Z,52.00
2019-02-24T01:01:59.918Z,52.10
2019-02-24T01:02:31.210Z,52.00
2019-02-24T01:03:02.424Z,52.00
2019-02-24T01:03:33.604Z,52.10
2019-02-24T01:04:04.806Z,52.10
2019-02-24T01:04:35.975Z,52.00
2019-02-24T01:05:07.423Z,52.00
2019-02-24T01:05:38.579Z,52.00
2019-02-24T01:06:09.775Z,52.00
2019-02-24T01:06:41.006Z,52.00
2019-02-24T01:07:12.214Z,52.00
2019-02-24T01:07:43.414Z,52.00
2019-02-24T01:08:14.869Z,52.00
2019-02-24T01:08:46.425Z,52.10
2019-02-24T01:09:17.628Z,52.10
2019-02-24T01:09:48.807Z,52.10
2019-02-24T01:10:19.995Z,52.10
2019-02-24T01:10:51.176Z,52.10
2019-02-24T01:11:22.671Z,52.10
2019-02-24T01:11:53.848Z,52.00
2019-02-24T01:12:25.061Z,52.00
2019-02-24T01:12:56.297Z,52.00
2019-02-24T01:13:27.809Z,52.00
2019-02-24T01:13:59.000Z,52.00
2019-02-24T01:14:30.483Z,51.90
2019-02-24T01:15:01.663Z,51.90
2019-02-24T01:15:32.878Z,51.90
2019-02-24T01:16:04.094Z,51.90
2019-02-24T01:16:35.330Z,51.90
2019-02-24T01:17:06.536Z,51.90
2019-02-24T01:17:38.081Z,51.90
2019-02-24T01:18:09.741Z,51.90
2019-02-24T01:18:41.258Z,51.80
2019-02-24T01:19:12.801Z,52.00
2019-02-24T01:19:43.978Z,51.80
2019-02-24T01:20:15.499Z,51.80
2019-02-24T01:20:46.678Z,51.90
2019-02-24T01:21:17.898Z,51.90
2019-02-24T01:21:49.174Z,51.90
2019-02-24T01:22:20.414Z,51.90
2019-02-24T01:22:52.037Z,51.80
2019-02-24T01:23:23.226Z,51.90
2019-02-24T01:23:54.422Z,51.90
2019-02-24T01:24:25.938Z,51.90
2019-02-24T01:24:57.114Z,52.00
2019-02-24T01:25:28.311Z,51.90
2019-02-24T01:25:59.483Z,51.90
2019-02-24T01:26:30.651Z,51.90
2019-02-24T01:27:01.896Z,51.90
2019-02-24T01:27:33.435Z,51.90
2019-02-24T01:28:04.615Z,52.00
2019-02-24T01:28:35.818Z,51.90
2019-02-24T01:29:06.991Z,51.80
2019-02-24T01:29:38.467Z,51.90
2019-02-24T01:30:09.656Z,51.80
2019-02-24T01:30:41.240Z,51.80
2019-02-24T01:31:12.420Z,51.90
2019-02-24T01:31:43.595Z,51.80
2019-02-24T01:32:14.791Z,51.80
2019-02-24T01:32:45.970Z,51.90
2019-02-24T01:33:17.166Z,51.90
2019-02-24T01:33:48.668Z,51.80
2019-02-24T01:34:19.852Z,51.90
2019-02-24T01:34:51.024Z,51.90
2019-02-24T01:35:22.204Z,51.90
2019-02-24T01:35:53.396Z,51.90
2019-02-24T01:36:24.577Z,51.90
2019-02-24T01:36:55.757Z,51.90
2019-02-24T01:37:27.261Z,52.00
2019-02-24T01:37:58.436Z,51.90
2019-02-24T01:38:29.685Z,51.90
2019-02-24T01:39:00.857Z,51.90
2019-02-24T01:39:32.041Z,51.90
2019-02-24T01:40:03.526Z,51.80
2019-02-24T01:40:34.707Z,51.80
2019-02-24T01:41:05.909Z,51.80
2019-02-24T01:41:37.093Z,51.80
2019-02-24T01:42:08.274Z,51.80
2019-02-24T01:42:39.477Z,52.00
2019-02-24T01:43:11.048Z,51.80
2019-02-24T01:43:42.225Z,51.80
2019-02-24T01:44:13.402Z,51.80
2019-02-24T01:44:44.594Z,51.70
2019-02-24T01:45:15.762Z,51.80
2019-02-24T01:45:46.932Z,51.80
2019-02-24T01:46:18.106Z,51.70
2019-02-24T01:46:49.350Z,51.70
2019-02-24T01:47:20.525Z,51.80
2019-02-24T01:47:51.711Z,51.70
2019-02-24T01:48:22.878Z,51.80
2019-02-24T01:48:54.538Z,51.70
2019-02-24T01:49:25.739Z,51.70
2019-02-24T01:49:56.934Z,52.00
2019-02-24T01:50:28.134Z,51.70
2019-02-24T01:50:59.311Z,51.70
2019-02-24T01:51:30.852Z,51.70
2019-02-24T01:52:02.037Z,51.70
2019-02-24T01:52:33.615Z,51.70
2019-02-24T01:53:05.159Z,51.70
2019-02-24T01:53:36.400Z,51.70
2019-02-24T01:54:07.926Z,51.70
2019-02-24T01:54:39.104Z,51.70
2019-02-24T01:55:10.299Z,51.70
2019-02-24T01:55:41.537Z,51.70
2019-02-24T01:56:12.713Z,51.70
2019-02-24T01:56:43.905Z,51.70
2019-02-24T01:57:15.086Z,51.70
2019-02-24T01:57:46.269Z,51.70
2019-02-24T01:58:17.456Z,51.70
2019-02-24T01:58:48.665Z,51.70
2019-02-24T01:59:19.841Z,51.70
2019-02-24T01:59:51.019Z,51.70
2019-02-24T02:00:22.208Z,51.60
2019-02-24T02:00:53.377Z,51.60
2019-02-24T02:01:24.567Z,51.60
2019-02-24T02:01:55.742Z,51.60
2019-02-24T02:02:26.919Z,51.60
2019-02-24T02:02:58.178Z,51.60
2019-02-24T02:03:29.365Z,51.60
2019-02-24T02:04:00.543Z,51.60
2019-02-24T02:04:31.726Z,51.60
2019-02-24T02:05:03.184Z,51.60
2019-02-24T02:05:34.372Z,51.60
2019-02-24T02:06:05.539Z,51.60
2019-02-24T02:06:36.828Z,51.60
2019-02-24T02:07:08.027Z,51.60
2019-02-24T02:07:39.265Z,51.60
2019-02-24T02:08:10.787Z,51.60
2019-02-24T02:08:41.963Z,51.60
2019-02-24T02:09:13.127Z,51.60
2019-02-24T02:09:44.307Z,51.60
2019-02-24T02:10:15.814Z,51.60
2019-02-24T02:10:47.017Z,51.60
2019-02-24T02:11:18.199Z,51.60
2019-02-24T02:11:49.378Z,51.60
2019-02-24T02:12:20.551Z,51.60
2019-02-24T02:12:51.724Z,51.60
2019-02-24T02:13:22.908Z,51.60
2019-02-24T02:13:54.075Z,51.60
2019-02-24T02:14:25.311Z,51.60
2019-02-24T02:14:56.810Z,51.60
2019-02-24T02:15:28.032Z,51.60
2019-02-24T02:15:59.248Z,51.60
2019-02-24T02:16:30.423Z,51.60
2019-02-24T02:17:01.604Z,51.60
2019-02-24T02:17:32.813Z,51.60
2019-02-24T02:18:04.404Z,51.60
2019-02-24T02:18:35.580Z,51.60
2019-02-24T02:19:06.760Z,51.60
2019-02-24T02:19:38.029Z,51.60
2019-02-24T02:20:09.551Z,51.60
2019-02-24T02:20:40.800Z,51.60
2019-02-24T02:21:12.369Z,52.30
2019-02-24T02:21:43.613Z,51.60
2019-02-24T02:22:14.789Z,51.60
2019-02-24T02:22:46.237Z,51.60
2019-02-24T02:23:17.978Z,51.60
2019-02-24T02:23:49.334Z,51.60
2019-02-24T02:24:20.519Z,51.60
2019-02-24T02:24:51.701Z,51.60
2019-02-24T02:25:22.877Z,51.60
2019-02-24T02:25:54.079Z,51.60
2019-02-24T02:26:25.355Z,51.60
2019-02-24T02:26:56.526Z,51.60
2019-02-24T02:27:27.714Z,51.60
2019-02-24T02:27:58.969Z,51.60
2019-02-24T02:28:30.134Z,51.60
2019-02-24T02:29:01.306Z,51.60
2019-02-24T02:29:32.594Z,51.50
2019-02-24T02:30:03.785Z,51.50
2019-02-24T02:30:34.970Z,51.50
2019-02-24T02:31:06.452Z,51.50
2019-02-24T02:31:37.624Z,51.50
2019-02-24T02:32:08.796Z,51.50
2019-02-24T02:32:40.025Z,51.40
2019-02-24T02:33:11.239Z,51.50
2019-02-24T02:33:42.509Z,51.50
2019-02-24T02:34:14.046Z,51.40
2019-02-24T02:34:45.280Z,51.40
2019-02-24T02:35:16.460Z,51.40
2019-02-24T02:35:47.643Z,51.40
2019-02-24T02:36:18.817Z,51.40
2019-02-24T02:36:49.991Z,51.40
2019-02-24T02:37:21.546Z,51.40
2019-02-24T02:37:52.829Z,51.50
2019-02-24T02:38:24.060Z,51.50
2019-02-24T02:38:55.241Z,51.50
2019-02-24T02:39:26.421Z,51.50
2019-02-24T02:39:57.599Z,51.40
2019-02-24T02:40:28.783Z,51.40
2019-02-24T02:40:59.970Z,51.50
2019-02-24T02:41:31.191Z,51.40
2019-02-24T02:42:02.732Z,51.50
2019-02-24T02:42:33.913Z,51.50
2019-02-24T02:43:05.212Z,51.50
2019-02-24T02:43:36.409Z,51.50
2019-02-24T02:44:07.642Z,51.50
2019-02-24T02:44:38.849Z,51.60
2019-02-24T02:45:10.137Z,51.50
2019-02-24T02:45:41.318Z,51.50
2019-02-24T02:46:12.671Z,51.50
2019-02-24T02:46:43.864Z,51.50
2019-02-24T02:47:15.043Z,51.60
2019-02-24T02:47:46.235Z,51.50
2019-02-24T02:48:17.462Z,51.60
2019-02-24T02:48:48.654Z,51.50
2019-02-24T02:49:19.844Z,51.60
2019-02-24T02:49:51.019Z,51.50
2019-02-24T02:50:22.252Z,51.50
2019-02-24T02:50:53.423Z,51.50
2019-02-24T02:51:24.622Z,51.50
2019-02-24T02:51:55.859Z,51.50
2019-02-24T02:52:27.041Z,51.50
2019-02-24T02:52:58.219Z,51.40
2019-02-24T02:53:29.401Z,51.40
2019-02-24T02:54:01.009Z,51.40
2019-02-24T02:54:32.215Z,51.40
2019-02-24T02:55:03.409Z,51.40
2019-02-24T02:55:34.655Z,51.40
2019-02-24T02:56:06.132Z,51.30
2019-02-24T02:56:37.319Z,51.40
2019-02-24T02:57:08.843Z,51.40
2019-02-24T02:57:40.095Z,51.50
2019-02-24T02:58:11.264Z,51.40
2019-02-24T02:58:42.442Z,51.40
2019-02-24T02:59:13.618Z,51.30
2019-02-24T02:59:44.825Z,51.10
2019-02-24T03:00:16.021Z,51.30
2019-02-24T03:00:47.218Z,51.40
2019-02-24T03:01:18.456Z,51.30
2019-02-24T03:01:49.636Z,51.40
2019-02-24T03:02:24.312Z,51.40
2019-02-24T03:02:54.072Z,51.40
2019-02-24T03:03:25.378Z,51.30
2019-02-24T03:03:56.845Z,51.30
2019-02-24T03:04:28.025Z,50.90
2019-02-24T03:04:59.514Z,51.30
2019-02-24T03:05:30.689Z,51.40
2019-02-24T03:06:01.890Z,51.40
2019-02-24T03:06:33.155Z,51.40
2019-02-24T03:07:04.348Z,51.40
2019-02-24T03:07:35.585Z,51.40
2019-02-24T03:08:06.789Z,51.30
2019-02-24T03:08:37.964Z,51.40
2019-02-24T03:09:09.472Z,51.40
2019-02-24T03:09:40.806Z,51.40
2019-02-24T03:10:11.985Z,51.40
2019-02-24T03:10:44.356Z,51.40
2019-02-24T03:11:15.527Z,51.40
2019-02-24T03:11:46.737Z,51.40
2019-02-24T03:12:18.315Z,51.40
2019-02-24T03:12:49.896Z,51.40
2019-02-24T03:13:21.115Z,51.40
2019-02-24T03:13:52.320Z,51.40
2019-02-24T03:14:23.511Z,51.30
2019-02-24T03:14:54.925Z,51.30
2019-02-24T03:15:26.150Z,51.30
2019-02-24T03:15:57.323Z,51.20
2019-02-24T03:16:28.972Z,51.20
2019-02-24T03:17:00.151Z,51.30
2019-02-24T03:17:31.333Z,51.30
2019-02-24T03:18:02.880Z,51.20
2019-02-24T03:18:34.427Z,51.30
2019-02-24T03:19:05.601Z,51.20
2019-02-24T03:19:36.778Z,51.20
2019-02-24T03:20:08.325Z,51.20
2019-02-24T03:20:39.500Z,51.90
2019-02-24T03:21:11.012Z,51.30
2019-02-24T03:21:42.206Z,51.30
2019-02-24T03:22:13.440Z,51.30
2019-02-24T03:22:44.692Z,51.20
2019-02-24T03:23:16.253Z,51.20
2019-02-24T03:23:47.434Z,51.20
2019-02-24T03:24:18.613Z,51.20
2019-02-24T03:24:49.789Z,51.30
2019-02-24T03:25:21.003Z,51.30
2019-02-24T03:25:52.465Z,51.20
2019-02-24T03:26:23.929Z,51.20
2019-02-24T03:26:55.389Z,51.30
2019-02-24T03:27:26.621Z,51.20
2019-02-24T03:27:57.795Z,51.80
2019-02-24T03:28:28.965Z,51.20
2019-02-24T03:29:04.045Z,51.30
2019-02-24T03:29:33.159Z,51.20
2019-02-24T03:30:04.346Z,51.20
2019-02-24T03:30:35.539Z,51.30
2019-02-24T03:31:06.720Z,51.20
2019-02-24T03:31:37.923Z,51.20
2019-02-24T03:32:09.115Z,51.30
2019-02-24T03:32:40.327Z,51.20
2019-02-24T03:33:11.513Z,51.30
2019-02-24T03:33:44.932Z,51.30
2019-02-24T03:34:15.696Z,51.30
2019-02-24T03:34:47.231Z,51.30
2019-02-24T03:35:18.407Z,51.30
2019-02-24T03:35:49.892Z,51.30
2019-02-24T03:36:21.070Z,51.20
2019-02-24T03:36:52.247Z,51.30
2019-02-24T03:37:23.799Z,51.30
2019-02-24T03:37:54.992Z,51.40
2019-02-24T03:38:26.473Z,51.30
2019-02-24T03:38:57.664Z,51.30
2019-02-24T03:39:29.139Z,51.30
2019-02-24T03:40:00.320Z,51.20
2019-02-24T03:40:31.495Z,51.20
2019-02-24T03:41:02.898Z,51.20
2019-02-24T03:41:34.072Z,51.20
2019-02-24T03:42:05.263Z,51.20
2019-02-24T03:42:36.440Z,51.20
2019-02-24T03:43:07.621Z,51.10
2019-02-24T03:43:38.796Z,51.10
2019-02-24T03:44:10.152Z,51.10
2019-02-24T03:44:41.768Z,51.70
2019-02-24T03:45:12.948Z,51.10
2019-02-24T03:45:44.221Z,51.10
2019-02-24T03:46:15.398Z,51.10
2019-02-24T03:46:46.597Z,51.20
2019-02-24T03:47:18.158Z,51.10
2019-02-24T03:47:49.348Z,51.10
2019-02-24T03:48:20.812Z,51.10
2019-02-24T03:48:52.010Z,51.20
2019-02-24T03:49:23.185Z,51.10
2019-02-24T03:49:54.390Z,51.10
2019-02-24T03:50:25.993Z,51.10
2019-02-24T03:50:57.229Z,51.10
2019-02-24T03:51:28.410Z,51.10
2019-02-24T03:51:59.578Z,51.10
2019-02-24T03:52:30.759Z,51.10
2019-02-24T03:53:01.932Z,51.10
2019-02-24T03:53:33.231Z,51.10
2019-02-24T03:54:04.457Z,51.10
2019-02-24T03:54:35.668Z,51.10
2019-02-24T03:55:06.874Z,51.10
2019-02-24T03:55:38.050Z,51.10
2019-02-24T03:56:09.220Z,51.10
2019-02-24T03:56:40.781Z,51.20
2019-02-24T03:57:11.956Z,51.10
2019-02-24T03:57:43.138Z,51.10
2019-02-24T03:58:14.307Z,51.10
2019-02-24T03:58:45.588Z,51.10
2019-02-24T03:59:17.139Z,51.20
2019-02-24T03:59:48.374Z,51.10
2019-02-24T04:00:19.559Z,51.10
2019-02-24T04:00:50.732Z,51.10
2019-02-24T04:01:21.909Z,51.10
2019-02-24T04:01:53.114Z,51.10
2019-02-24T04:02:24.292Z,51.10
2019-02-24T04:02:55.472Z,51.00
2019-02-24T04:03:26.643Z,51.00
2019-02-24T04:03:57.825Z,51.00
2019-02-24T04:04:29.187Z,51.00
2019-02-24T04:05:00.648Z,51.00
2019-02-24T04:05:31.857Z,51.00
2019-02-24T04:06:03.036Z,51.00
2019-02-24T04:06:34.607Z,51.00
2019-02-24T04:07:06.089Z,51.00
2019-02-24T04:07:37.274Z,51.00
2019-02-24T04:08:08.449Z,51.00
2019-02-24T04:08:39.703Z,51.00
2019-02-24T04:09:11.337Z,51.00
2019-02-24T04:09:42.871Z,51.00
2019-02-24T04:10:14.414Z,51.00
2019-02-24T04:10:45.633Z,51.00
2019-02-24T04:11:16.899Z,51.00
2019-02-24T04:11:48.282Z,51.00
2019-02-24T04:12:19.459Z,51.00
2019-02-24T04:12:50.636Z,51.30
2019-02-24T04:13:21.821Z,51.00
2019-02-24T04:13:53.349Z,51.00
2019-02-24T04:14:24.625Z,51.00
2019-02-24T04:14:55.811Z,51.00
2019-02-24T04:15:27.342Z,51.00
2019-02-24T04:15:59.020Z,51.00
2019-02-24T04:16:30.518Z,51.00
2019-02-24T04:17:01.702Z,51.00
2019-02-24T04:17:33.261Z,51.00
2019-02-24T04:18:04.431Z,51.00
2019-02-24T04:18:35.614Z,51.00
2019-02-24T04:19:06.823Z,51.00
2019-02-24T04:19:38.100Z,51.00
2019-02-24T04:20:09.299Z,51.00
2019-02-24T04:20:41.103Z,51.00
2019-02-24T04:21:12.276Z,51.00
2019-02-24T04:21:43.769Z,51.00
2019-02-24T04:22:15.331Z,51.00
2019-02-24T04:22:46.512Z,51.20
2019-02-24T04:23:17.998Z,51.00
2019-02-24T04:23:49.167Z,51.00
2019-02-24T04:24:20.375Z,51.00
2019-02-24T04:24:51.552Z,51.00
2019-02-24T04:25:22.753Z,51.00
2019-02-24T04:25:54.024Z,51.00
2019-02-24T04:26:26.446Z,51.00
2019-02-24T04:26:57.654Z,51.00
2019-02-24T04:27:28.833Z,51.00
2019-02-24T04:28:00.300Z,50.90
2019-02-24T04:28:31.491Z,50.90
2019-02-24T04:29:02.857Z,50.90
2019-02-24T04:29:34.032Z,50.90
2019-02-24T04:30:05.217Z,50.90
2019-02-24T04:30:36.392Z,50.90
2019-02-24T04:31:07.797Z,50.90
2019-02-24T04:31:38.973Z,50.80
2019-02-24T04:32:10.304Z,50.90
2019-02-24T04:32:41.538Z,50.80
2019-02-24T04:33:12.721Z,50.90
2019-02-24T04:33:43.895Z,50.90
2019-02-24T04:34:15.069Z,50.90
2019-02-24T04:34:46.352Z,50.90
2019-02-24T04:35:17.638Z,50.90
2019-02-24T04:35:48.826Z,50.90
2019-02-24T04:36:20.458Z,51.00
2019-02-24T04:36:51.977Z,50.90
2019-02-24T04:37:23.146Z,50.90
2019-02-24T04:37:54.338Z,50.90
2019-02-24T04:38:25.606Z,50.90
2019-02-24T04:38:56.783Z,50.90
2019-02-24T04:39:28.026Z,50.90
2019-02-24T04:39:59.309Z,51.00
2019-02-24T04:40:30.759Z,50.90
2019-02-24T04:41:01.908Z,50.90
2019-02-24T04:41:33.142Z,50.90
2019-02-24T04:42:04.315Z,51.00
2019-02-24T04:42:35.492Z,50.90
2019-02-24T04:43:06.687Z,50.90
2019-02-24T04:43:37.859Z,50.90
2019-02-24T04:44:09.316Z,50.90
2019-02-24T04:44:40.589Z,51.00
2019-02-24T04:45:11.769Z,50.90
2019-02-24T04:45:43.256Z,50.90
2019-02-24T04:46:14.437Z,50.90
2019-02-24T04:46:45.604Z,50.90
2019-02-24T04:47:16.772Z,51.00
2019-02-24T04:47:48.080Z,50.90
2019-02-24T04:48:19.401Z,51.00
2019-02-24T04:48:50.584Z,51.00
2019-02-24T04:49:21.781Z,51.00
2019-02-24T04:49:52.956Z,51.60
2019-02-24T04:50:24.151Z,50.90
2019-02-24T04:50:55.397Z,51.00
2019-02-24T04:51:26.578Z,50.90
2019-02-24T04:51:57.771Z,50.80
2019-02-24T04:52:29.249Z,50.90
2019-02-24T04:53:00.437Z,50.80
2019-02-24T04:53:31.938Z,50.80
2019-02-24T04:54:03.455Z,50.80
2019-02-24T04:54:34.990Z,50.80
2019-02-24T04:55:06.301Z,50.80
2019-02-24T04:55:37.517Z,50.80
2019-02-24T04:56:08.702Z,50.80
2019-02-24T04:56:39.871Z,50.80
2019-02-24T04:57:11.048Z,50.80
2019-02-24T04:57:42.594Z,50.80
2019-02-24T04:58:13.774Z,50.80
2019-02-24T04:58:44.939Z,50.80
2019-02-24T04:59:16.125Z,50.80
2019-02-24T04:59:47.330Z,50.90
2019-02-24T05:00:18.565Z,50.80
2019-02-24T05:00:49.747Z,50.80
2019-02-24T05:01:21.031Z,50.80
2019-02-24T05:01:52.236Z,50.80
2019-02-24T05:02:23.767Z,50.80
2019-02-24T05:02:54.992Z,50.80
2019-02-24T05:03:26.160Z,50.80
2019-02-24T05:03:57.689Z,51.30
2019-02-24T05:04:28.912Z,50.80
2019-02-24T05:05:00.194Z,50.70
2019-02-24T05:05:31.671Z,50.70
2019-02-24T05:06:02.847Z,50.80
2019-02-24T05:06:34.023Z,50.80
2019-02-24T05:07:05.228Z,50.70
2019-02-24T05:07:36.447Z,51.50
2019-02-24T05:08:07.951Z,50.80
2019-02-24T05:08:39.168Z,50.80
2019-02-24T05:09:10.415Z,50.80
2019-02-24T05:09:41.609Z,50.90
2019-02-24T05:10:12.869Z,50.80
2019-02-24T05:10:44.040Z,50.80
2019-02-24T05:11:15.228Z,50.80
2019-02-24T05:11:46.437Z,50.70
2019-02-24T05:12:17.737Z,50.80
2019-02-24T05:12:49.254Z,50.70
2019-02-24T05:13:20.786Z,50.70
2019-02-24T05:13:52.022Z,50.60
2019-02-24T05:14:23.202Z,50.60
2019-02-24T05:14:54.418Z,50.60
2019-02-24T05:15:25.922Z,50.60
2019-02-24T05:15:57.099Z,50.60
2019-02-24T05:16:28.286Z,50.60
2019-02-24T05:16:59.463Z,50.60
2019-02-24T05:17:31.054Z,50.70
2019-02-24T05:18:02.341Z,50.60
2019-02-24T05:18:33.518Z,50.60
2019-02-24T05:19:04.716Z,50.70
2019-02-24T05:19:35.935Z,50.70
2019-02-24T05:20:07.171Z,50.70
2019-02-24T05:20:38.418Z,50.70
2019-02-24T05:21:09.638Z,50.70
2019-02-24T05:21:40.879Z,50.90
2019-02-24T05:22:12.049Z,50.70
2019-02-24T05:22:43.222Z,50.60
2019-02-24T05:23:14.418Z,50.60
2019-02-24T05:23:45.634Z,50.70
2019-02-24T05:24:16.862Z,50.70
2019-02-24T05:24:48.127Z,50.70
2019-02-24T05:25:19.300Z,50.80
2019-02-24T05:25:50.779Z,50.70
2019-02-24T05:26:21.943Z,50.70
2019-02-24T05:26:53.127Z,50.70
2019-02-24T05:27:24.331Z,50.60
2019-02-24T05:27:55.516Z,50.70
2019-02-24T05:28:26.698Z,50.60
2019-02-24T05:28:57.868Z,50.70
2019-02-24T05:29:29.045Z,50.60
2019-02-24T05:30:00.329Z,50.70
2019-02-24T05:30:31.551Z,50.70
2019-02-24T05:31:03.829Z,50.70
2019-02-24T05:31:35.034Z,50.70
2019-02-24T05:32:06.290Z,50.70
2019-02-24T05:32:37.497Z,50.70
2019-02-24T05:33:08.686Z,50.70
2019-02-24T05:33:40.043Z,50.80
2019-02-24T05:34:11.214Z,50.60
2019-02-24T05:34:42.393Z,50.60
2019-02-24T05:35:13.601Z,50.60
2019-02-24T05:35:44.838Z,50.60
2019-02-24T05:36:16.037Z,50.70
2019-02-24T05:36:47.218Z,50.60
2019-02-24T05:37:18.439Z,50.60
2019-02-24T05:37:49.674Z,50.60
2019-02-24T05:38:21.170Z,50.60
2019-02-24T05:38:52.710Z,50.60
2019-02-24T05:39:23.894Z,50.60
2019-02-24T05:39:55.168Z,50.60
2019-02-24T05:40:26.763Z,50.60
2019-02-24T05:40:58.244Z,50.60
2019-02-24T05:41:30.074Z,50.60
2019-02-24T05:42:01.250Z,50.60
2019-02-24T05:42:32.466Z,50.70
2019-02-24T05:43:03.689Z,50.60
2019-02-24T05:43:34.987Z,50.60
2019-02-24T05:44:06.228Z,50.60
2019-02-24T05:44:37.403Z,50.60
2019-02-24T05:45:08.579Z,50.60
2019-02-24T05:45:39.763Z,50.60
2019-02-24T05:46:11.048Z,50.60
2019-02-24T05:46:42.278Z,51.10
2019-02-24T05:47:13.556Z,50.50
2019-02-24T05:47:44.727Z,50.60
2019-02-24T05:48:15.907Z,50.60
2019-02-24T05:48:47.084Z,50.50
2019-02-24T05:49:18.580Z,50.50
2019-02-24T05:49:49.786Z,50.50
2019-02-24T05:50:20.977Z,50.50
2019-02-24T05:50:52.193Z,50.50
2019-02-24T05:51:23.376Z,50.50
2019-02-24T05:51:54.554Z,50.50
2019-02-24T05:52:25.720Z,50.50
2019-02-24T05:52:57.208Z,50.50
2019-02-24T05:53:28.387Z,50.50
2019-02-24T05:53:59.553Z,50.60
2019-02-24T05:54:30.805Z,50.50
2019-02-24T05:55:02.015Z,50.60
2019-02-24T05:55:33.201Z,50.60
2019-02-24T05:56:04.423Z,50.60
2019-02-24T05:56:36.038Z,50.60
2019-02-24T05:57:07.218Z,50.60
2019-02-24T05:57:38.393Z,50.60
2019-02-24T05:58:09.589Z,50.60
2019-02-24T05:58:41.217Z,50.60
2019-02-24T05:59:12.714Z,50.50
2019-02-24T05:59:43.902Z,50.50
2019-02-24T06:00:15.086Z,50.50
2019-02-24T06:00:46.261Z,50.50
2019-02-24T06:01:19.865Z,50.50
2019-02-24T06:01:50.786Z,50.50
2019-02-24T06:02:21.955Z,50.50
2019-02-24T06:02:53.121Z,50.40
2019-02-24T06:03:24.298Z,50.40
2019-02-24T06:03:55.528Z,50.40
2019-02-24T06:04:26.700Z,50.40
2019-02-24T06:04:57.863Z,50.50
2019-02-24T06:05:29.063Z,50.40
2019-02-24T06:06:00.246Z,50.40
2019-02-24T06:06:31.423Z,50.40
2019-02-24T06:07:02.600Z,51.10
2019-02-24T06:07:33.814Z,50.40
2019-02-24T06:08:04.989Z,50.50
2019-02-24T06:08:36.164Z,50.40
2019-02-24T06:09:07.661Z,50.40
2019-02-24T06:09:39.208Z,50.40
2019-02-24T06:10:10.548Z,50.40
2019-02-24T06:10:42.084Z,50.40
2019-02-24T06:11:13.612Z,50.40
2019-02-24T06:11:44.791Z,50.40
2019-02-24T06:12:15.964Z,50.40
2019-02-24T06:12:47.244Z,51.00
2019-02-24T06:13:18.430Z,50.40
2019-02-24T06:13:49.604Z,50.40
2019-02-24T06:14:20.789Z,50.50
2019-02-24T06:14:52.063Z,50.40
2019-02-24T06:15:23.246Z,50.50
2019-02-24T06:15:54.420Z,50.40
2019-02-24T06:16:25.633Z,51.10
2019-02-24T06:16:56.806Z,50.40
2019-02-24T06:17:28.005Z,50.50
2019-02-24T06:17:59.185Z,50.50
2019-02-24T06:18:30.393Z,50.50
2019-02-24T06:19:01.595Z,50.50
2019-02-24T06:19:33.029Z,50.50
2019-02-24T06:20:04.209Z,50.40
2019-02-24T06:20:35.395Z,50.50
2019-02-24T06:21:06.567Z,50.40
2019-02-24T06:21:37.762Z,50.40
2019-02-24T06:22:08.983Z,50.40
2019-02-24T06:22:40.296Z,50.40
2019-02-24T06:23:11.471Z,50.40
2019-02-24T06:23:42.655Z,50.80
2019-02-24T06:24:13.850Z,50.40
2019-02-24T06:24:45.025Z,50.40
2019-02-24T06:25:16.194Z,50.40
2019-02-24T06:25:47.374Z,50.40
2019-02-24T06:26:18.618Z,50.40
2019-02-24T06:26:49.795Z,50.40
2019-02-24T06:27:21.008Z,50.40
2019-02-24T06:27:52.202Z,50.30
2019-02-24T06:28:23.379Z,50.30
2019-02-24T06:28:54.936Z,50.40
2019-02-24T06:29:26.151Z,50.30
2019-02-24T06:30:04.637Z,50.40
2019-02-24T06:30:30.583Z,50.30
2019-02-24T06:31:02.085Z,50.40
2019-02-24T06:31:33.261Z,50.30
2019-02-24T06:32:04.437Z,50.40
2019-02-24T06:32:35.616Z,50.30
2019-02-24T06:33:06.827Z,50.30
2019-02-24T06:33:38.344Z,50.30
2019-02-24T06:34:09.601Z,50.40
2019-02-24T06:34:40.801Z,50.30
2019-02-24T06:35:11.977Z,50.30
2019-02-24T06:35:43.164Z,50.40
2019-02-24T06:36:14.334Z,50.30
2019-02-24T06:36:45.541Z,50.40
2019-02-24T06:37:16.713Z,50.40
2019-02-24T06:37:48.010Z,50.30
2019-02-24T06:38:19.218Z,50.40
2019-02-24T06:38:50.393Z,50.40
2019-02-24T06:39:21.577Z,50.40
2019-02-24T06:39:52.761Z,50.30
2019-02-24T06:40:23.958Z,50.40
2019-02-24T06:40:55.161Z,50.30
2019-02-24T06:41:26.357Z,50.40
2019-02-24T06:41:57.542Z,50.40
2019-02-24T06:42:28.717Z,50.40
2019-02-24T06:43:00.260Z,50.40